Time;durP1;ratioP1;P1;durP2;ratioP2;P2;SDS_P1;SDS_P2;PMS_P1;PMS_P2;Temp;Humidity;BMP_temperature;BMP_pressure;BME280_temperature;BME280_humidity;BME280_pressure;Samples;Min_cycle;Max_cycle;Signal;HPM_P1;HPM_P2
2023/12/11 00:00:06;;;;;;;;;;;;;;;;;;4165482;28;20377;-73
2023/12/11 00:02:08;;;;;;;;;;;;;;;;;;4165042;28;20008;-73
2023/12/11 00:04:11;;;;;;;;;;;;;;;;;;4146843;28;19945;-73
2023/12/11 00:06:13;;;;;;;;;;;;;;;;;;4137060;28;19922;-73
2023/12/11 00:08:14;;;;;;;;;;;;;;;;;;4138174;28;19929;-72
2023/12/11 00:10:15;;;;;;;;;;;;;;;;;;4165279;28;19921;-72
2023/12/11 00:12:17;;;;;;;;;;;;;;;;;;4165157;28;19921;-72
2023/12/11 00:14:18;;;;;;;;;;;;;;;;;;4165573;28;19920;-72
2023/12/11 00:16:20;;;;;;;;;;;;;;;;;;4159599;28;19925;-73
2023/12/11 00:18:21;;;;;;;;;;;;;;;;;;4148856;28;20345;-72
2023/12/11 00:20:23;;;;;;;;;;;;;;;;;;4148941;28;19925;-72
2023/12/11 00:22:24;;;;;;;;;;;;;;;;;;4148539;28;19921;-72
2023/12/11 00:24:26;;;;;;;;;;;;;;;;;;4148838;28;20402;-72
2023/12/11 00:26:27;;;;;;;;;;;;;;;;;;4148927;28;20008;-73
2023/12/11 00:28:29;;;;;;;;;;;;;;;;;;4148686;28;19928;-72
2023/12/11 00:30:30;;;;;;;;;;;;;;;;;;4148569;28;20016;-72
2023/12/11 00:32:32;;;;;;;;;;;;;;;;;;4148730;28;19921;-72
2023/12/11 00:34:33;;;;;;;;;;;;;;;;;;4148650;28;19933;-73
2023/12/11 00:36:35;;;;;;;;;;;;;;;;;;4148744;28;19921;-72
2023/12/11 00:38:36;;;;;;;;;;;;;;;;;;4148641;28;20032;-73
2023/12/11 00:40:38;;;;;;;;;;;;;;;;;;4148758;28;20011;-72
2023/12/11 00:42:39;;;;;;;;;;;;;;;;;;4148715;28;20396;-71
2023/12/11 00:44:41;;;;;;;;;;;;;;;;;;4147363;28;19925;-72
2023/12/11 00:46:42;;;;;;;;;;;;;;;;;;4148503;28;19921;-72
2023/12/11 00:48:44;;;;;;;;;;;;;;;;;;4148414;28;19952;-73
2023/12/11 00:50:46;;;;;;;;;;;;;;;;;;4148418;28;19925;-73
2023/12/11 00:52:48;;;;;;;;;;;;;;;;;;4148276;28;19933;-73
2023/12/11 00:54:49;;;;;;;;;;;;;;;;;;4155649;28;19932;-73
2023/12/11 00:56:51;;;;;;;;;;;;;;;;;;4148357;28;19991;-73
2023/12/11 00:58:52;;;;;;;;;;;;;;;;;;4148318;28;20008;-73
2023/12/11 01:00:53;;;;;;;;;;;;;;;;;;4148073;28;19956;-73
2023/12/11 01:02:56;;;;;;;;;;;;;;;;;;4132692;28;20011;-65
2023/12/11 01:04:57;;;;;;;;;;;;;;;;;;4148442;28;19953;-65
2023/12/11 01:06:59;;;;;;;;;;;;;;;;;;4148384;28;19922;-65
2023/12/11 01:09:00;;;;;;;;;;;;;;;;;;4166302;28;19932;-65
2023/12/11 01:11:03;;;;;;;;;;;;;;;;;;4180811;28;19927;-65
2023/12/11 01:13:05;;;;;;;;;;;;;;;;;;4154972;28;19945;-65
2023/12/11 01:15:07;;;;;;;;;;;;;;;;;;4164460;28;20016;-66
2023/12/11 01:17:08;;;;;;;;;;;;;;;;;;4164424;28;20301;-65
2023/12/11 01:19:30;;;;;;;;;;;;;;;;;;4164804;28;20329;-66
2023/12/11 01:21:31;;;;;;;;;;;;;;;;;;4164312;28;19947;-66
2023/12/11 01:23:33;;;;;;;;;;;;;;;;;;4164711;28;19989;-65
2023/12/11 01:25:34;;;;;;;;;;;;;;;;;;4164377;28;19921;-65
2023/12/11 01:27:36;;;;;;;;;;;;;;;;;;4164703;28;19921;-65
2023/12/11 01:29:37;;;;;;;;;;;;;;;;;;4164440;28;19975;-65
2023/12/11 01:31:39;;;;;;;;;;;;;;;;;;4164450;28;19921;-65
2023/12/11 01:33:40;;;;;;;;;;;;;;;;;;4164297;28;19921;-65
2023/12/11 01:35:42;;;;;;;;;;;;;;;;;;4164297;28;20012;-66
2023/12/11 01:37:43;;;;;;;;;;;;;;;;;;4164621;28;19964;-66
2023/12/11 01:39:45;;;;;;;;;;;;;;;;;;4164341;28;19921;-65
2023/12/11 01:41:46;;;;;;;;;;;;;;;;;;4164252;28;19990;-65
2023/12/11 01:43:48;;;;;;;;;;;;;;;;;;4164478;28;19927;-65
2023/12/11 01:45:49;;;;;;;;;;;;;;;;;;4164152;28;20372;-65
2023/12/11 01:47:51;;;;;;;;;;;;;;;;;;4164283;28;20361;-65
2023/12/11 01:49:52;;;;;;;;;;;;;;;;;;4164267;28;19932;-65
2023/12/11 01:51:54;;;;;;;;;;;;;;;;;;4164194;28;19924;-65
2023/12/11 01:53:55;;;;;;;;;;;;;;;;;;4172577;28;19924;-65
2023/12/11 01:55:57;;;;;;;;;;;;;;;;;;4163032;28;19960;-65
2023/12/11 01:57:58;;;;;;;;;;;;;;;;;;4168060;28;19921;-65
2023/12/11 02:00:00;;;;;;;;;;;;;;;;;;4147768;28;19925;-65
2023/12/11 02:02:02;;;;;;;;;;;;;;;;;;4154100;28;19924;-65
2023/12/11 02:04:05;;;;;;;;;;;;;;;;;;4146519;28;19964;-66
2023/12/11 02:06:07;;;;;;;;;;;;;;;;;;4167073;28;19920;-66
2023/12/11 02:08:08;;;;;;;;;;;;;;;;;;4169045;28;19964;-65
2023/12/11 02:10:10;;;;;;;;;;;;;;;;;;4150806;28;19956;-66
2023/12/11 02:12:11;;;;;;;;;;;;;;;;;;4167493;28;19936;-65
2023/12/11 02:14:13;;;;;;;;;;;;;;;;;;4167106;28;20020;-65
2023/12/11 02:16:17;;;;;;;;;;;;;;;;;;4166935;28;20339;-66
2023/12/11 02:18:19;;;;;;;;;;;;;;;;;;4167014;28;19921;-65
2023/12/11 02:20:20;;;;;;;;;;;;;;;;;;4167206;28;19921;-65
2023/12/11 02:22:22;;;;;;;;;;;;;;;;;;4167110;28;19924;-73
2023/12/11 02:24:23;;;;;;;;;;;;;;;;;;4166926;28;20339;-73
2023/12/11 02:26:25;;;;;;;;;;;;;;;;;;4167114;28;19921;-73
2023/12/11 02:28:27;;;;;;;;;;;;;;;;;;4166909;28;19921;-73
2023/12/11 02:30:28;;;;;;;;;;;;;;;;;;4166734;28;19964;-72
2023/12/11 02:32:29;;;;;;;;;;;;;;;;;;4166979;28;19928;-66
2023/12/11 02:34:31;;;;;;;;;;;;;;;;;;4166815;28;19975;-65
2023/12/11 02:36:33;;;;;;;;;;;;;;;;;;4166738;28;19960;-66
2023/12/11 02:38:34;;;;;;;;;;;;;;;;;;4166607;28;19964;-65
2023/12/11 02:40:36;;;;;;;;;;;;;;;;;;4166780;28;19970;-66
2023/12/11 02:42:37;;;;;;;;;;;;;;;;;;4166822;28;20439;-66
2023/12/11 02:44:39;;;;;;;;;;;;;;;;;;4166876;28;20332;-66
2023/12/11 02:46:40;;;;;;;;;;;;;;;;;;4166455;28;19984;-66
2023/12/11 02:48:42;;;;;;;;;;;;;;;;;;4166662;28;19936;-65
2023/12/11 02:50:43;;;;;;;;;;;;;;;;;;4166196;28;20039;-66
2023/12/11 02:52:45;;;;;;;;;;;;;;;;;;4165195;28;19943;-66
2023/12/11 02:54:46;;;;;;;;;;;;;;;;;;4160108;28;19929;-65
2023/12/11 02:56:47;;;;;;;;;;;;;;;;;;4150022;28;19953;-65
2023/12/11 02:58:49;;;;;;;;;;;;;;;;;;4150288;28;19968;-66
2023/12/11 03:00:50;;;;;;;;;;;;;;;;;;4149734;28;19929;-66
2023/12/11 03:02:52;;;;;;;;;;;;;;;;;;4150150;28;20020;-66
2023/12/11 03:04:53;;;;;;;;;;;;;;;;;;4152320;28;19928;-66
2023/12/11 03:06:55;;;;;;;;;;;;;;;;;;4166167;28;19921;-66
2023/12/11 03:08:56;;;;;;;;;;;;;;;;;;4174621;28;20292;-66
2023/12/11 03:10:58;;;;;;;;;;;;;;;;;;4182745;28;19960;-66
2023/12/11 03:12:59;;;;;;;;;;;;;;;;;;4183023;28;19920;-66
2023/12/11 03:15:01;;;;;;;;;;;;;;;;;;4182842;28;19970;-66
2023/12/11 03:17:02;;;;;;;;;;;;;;;;;;4182627;28;20408;-66
2023/12/11 03:19:04;;;;;;;;;;;;;;;;;;4182671;28;19921;-66
2023/12/11 03:21:05;;;;;;;;;;;;;;;;;;4182810;28;20396;-66
2023/12/11 03:23:07;;;;;;;;;;;;;;;;;;4182626;28;20041;-66
2023/12/11 03:25:08;;;;;;;;;;;;;;;;;;4173638;28;19933;-66
2023/12/11 03:27:10;;;;;;;;;;;;;;;;;;4176456;28;20011;-66
2023/12/11 03:29:12;;;;;;;;;;;;;;;;;;4164726;28;19990;-66
2023/12/11 03:31:13;;;;;;;;;;;;;;;;;;4182391;28;19944;-67
2023/12/11 03:33:15;;;;;;;;;;;;;;;;;;4182316;28;19967;-67
2023/12/11 03:35:17;;;;;;;;;;;;;;;;;;4182339;28;19921;-66
2023/12/11 03:37:19;;;;;;;;;;;;;;;;;;4182279;28;19948;-66
2023/12/11 03:39:20;;;;;;;;;;;;;;;;;;4182209;28;19928;-67
2023/12/11 03:41:22;;;;;;;;;;;;;;;;;;4182110;28;19925;-67
2023/12/11 03:43:23;;;;;;;;;;;;;;;;;;4175634;28;19924;-67
2023/12/11 03:45:25;;;;;;;;;;;;;;;;;;4165650;28;19960;-67
2023/12/11 03:47:26;;;;;;;;;;;;;;;;;;4165654;28;19921;-67
2023/12/11 03:49:28;;;;;;;;;;;;;;;;;;4147964;28;19929;-67
2023/12/11 03:51:29;;;;;;;;;;;;;;;;;;4133851;28;19925;-66
2023/12/11 03:53:31;;;;;;;;;;;;;;;;;;4158998;28;19928;-66
2023/12/11 03:55:32;;;;;;;;;;;;;;;;;;4181965;28;19932;-66
2023/12/11 03:57:34;;;;;;;;;;;;;;;;;;4181920;28;19971;-66
2023/12/11 03:59:35;;;;;;;;;;;;;;;;;;4181951;28;20359;-67
2023/12/11 04:01:37;;;;;;;;;;;;;;;;;;4175076;28;19921;-68
2023/12/11 04:03:38;;;;;;;;;;;;;;;;;;4181300;28;19943;-67
2023/12/11 04:05:40;;;;;;;;;;;;;;;;;;4181919;28;19928;-66
2023/12/11 04:07:41;;;;;;;;;;;;;;;;;;4181954;28;19932;-67
2023/12/11 04:09:43;;;;;;;;;;;;;;;;;;4181796;28;19924;-67
2023/12/11 04:11:44;;;;;;;;;;;;;;;;;;4181882;28;19921;-66
2023/12/11 04:13:46;;;;;;;;;;;;;;;;;;4181767;28;20372;-67
2023/12/11 04:15:47;;;;;;;;;;;;;;;;;;4181723;28;19960;-67
2023/12/11 04:17:49;;;;;;;;;;;;;;;;;;4181718;28;20315;-67
2023/12/11 04:19:50;;;;;;;;;;;;;;;;;;4181588;28;19925;-67
2023/12/11 04:21:52;;;;;;;;;;;;;;;;;;4168855;28;19991;-67
2023/12/11 04:23:55;;;;;;;;;;;;;;;;;;4147578;28;19929;-67
2023/12/11 04:26:00;;;;;;;;;;;;;;;;;;4165435;28;19939;-66
2023/12/11 04:28:01;;;;;;;;;;;;;;;;;;4181008;28;19927;-66
2023/12/11 04:30:04;;;;;;;;;;;;;;;;;;4181392;28;19960;-64
2023/12/11 04:32:06;;;;;;;;;;;;;;;;;;4162945;28;20360;-64
2023/12/11 04:34:07;;;;;;;;;;;;;;;;;;4181490;28;19920;-69
2023/12/11 04:36:09;;;;;;;;;;;;;;;;;;4181336;28;20004;-69
2023/12/11 04:38:10;;;;;;;;;;;;;;;;;;4181604;28;19920;-70
2023/12/11 04:40:11;;;;;;;;;;;;;;;;;;4170014;28;20299;-69
2023/12/11 04:42:13;;;;;;;;;;;;;;;;;;4164900;28;19925;-69
2023/12/11 04:44:14;;;;;;;;;;;;;;;;;;4164826;28;19932;-70
2023/12/11 04:46:16;;;;;;;;;;;;;;;;;;4162638;28;19921;-69
2023/12/11 04:48:17;;;;;;;;;;;;;;;;;;4148450;28;20361;-69
2023/12/11 04:50:19;;;;;;;;;;;;;;;;;;4148378;28;19921;-69
2023/12/11 04:52:20;;;;;;;;;;;;;;;;;;4148465;28;19922;-69
2023/12/11 04:54:22;;;;;;;;;;;;;;;;;;4171931;28;20369;-69
2023/12/11 04:56:24;;;;;;;;;;;;;;;;;;4181290;28;19924;-69
2023/12/11 04:58:25;;;;;;;;;;;;;;;;;;4169904;28;19925;-70
2023/12/11 05:00:27;;;;;;;;;;;;;;;;;;4164424;28;20402;-70
2023/12/11 05:02:28;;;;;;;;;;;;;;;;;;4164717;28;19929;-70
2023/12/11 05:04:30;;;;;;;;;;;;;;;;;;4164475;28;19921;-69
2023/12/11 05:06:31;;;;;;;;;;;;;;;;;;4164533;28;20019;-69
2023/12/11 05:08:33;;;;;;;;;;;;;;;;;;4169863;28;19959;-69
2023/12/11 05:10:34;;;;;;;;;;;;;;;;;;4180963;28;20011;-69
2023/12/11 05:12:36;;;;;;;;;;;;;;;;;;4163265;28;19921;-69
2023/12/11 05:14:37;;;;;;;;;;;;;;;;;;4181022;28;19967;-69
2023/12/11 05:16:39;;;;;;;;;;;;;;;;;;4180291;28;20012;-69
2023/12/11 05:18:41;;;;;;;;;;;;;;;;;;4164410;28;19995;-69
2023/12/11 05:20:42;;;;;;;;;;;;;;;;;;4164521;28;20328;-70
2023/12/11 05:22:44;;;;;;;;;;;;;;;;;;4154333;28;20371;-69
2023/12/11 05:24:47;;;;;;;;;;;;;;;;;;4161716;28;19975;-69
2023/12/11 05:26:49;;;;;;;;;;;;;;;;;;4168351;28;19928;-69
2023/12/11 05:28:50;;;;;;;;;;;;;;;;;;4164395;28;20011;-69
2023/12/11 05:30:52;;;;;;;;;;;;;;;;;;4147052;28;19922;-68
2023/12/11 05:32:53;;;;;;;;;;;;;;;;;;4164647;28;20369;-69
2023/12/11 05:34:55;;;;;;;;;;;;;;;;;;4164207;28;20549;-69
2023/12/11 05:36:56;;;;;;;;;;;;;;;;;;4164273;28;20297;-69
2023/12/11 05:38:58;;;;;;;;;;;;;;;;;;4164382;28;19921;-69
2023/12/11 05:40:59;;;;;;;;;;;;;;;;;;4167601;28;20011;-71
2023/12/11 05:43:01;;;;;;;;;;;;;;;;;;4149805;28;20377;-69
2023/12/11 05:45:03;;;;;;;;;;;;;;;;;;4151230;28;19925;-65
2023/12/11 05:47:04;;;;;;;;;;;;;;;;;;4151286;28;20325;-65
2023/12/11 05:49:05;;;;;;;;;;;;;;;;;;4151068;28;19975;-65
2023/12/11 05:51:07;;;;;;;;;;;;;;;;;;4151241;28;20001;-65
2023/12/11 05:53:09;;;;;;;;;;;;;;;;;;4154610;28;19922;-65
2023/12/11 05:55:10;;;;;;;;;;;;;;;;;;4168593;28;19992;-65
2023/12/11 05:57:13;;;;;;;;;;;;;;;;;;4167293;28;20293;-64
2023/12/11 05:59:14;;;;;;;;;;;;;;;;;;4167303;28;19925;-65
2023/12/11 06:01:16;;;;;;;;;;;;;;;;;;4167031;28;20299;-64
2023/12/11 06:03:18;;;;;;;;;;;;;;;;;;4167040;28;19921;-64
2023/12/11 06:05:19;;;;;;;;;;;;;;;;;;4167513;28;19921;-64
2023/12/11 06:07:21;;;;;;;;;;;;;;;;;;4167407;28;20003;-64
2023/12/11 06:09:22;;;;;;;;;;;;;;;;;;4179045;28;19921;-65
2023/12/11 06:11:23;;;;;;;;;;;;;;;;;;4183548;28;19986;-65
2023/12/11 06:13:25;;;;;;;;;;;;;;;;;;4178396;28;20333;-65
2023/12/11 06:15:26;;;;;;;;;;;;;;;;;;4167001;28;20008;-64
2023/12/11 06:17:28;;;;;;;;;;;;;;;;;;4167231;28;19921;-65
2023/12/11 06:19:30;;;;;;;;;;;;;;;;;;4166931;28;19925;-66
2023/12/11 06:21:31;;;;;;;;;;;;;;;;;;4166727;28;19921;-65
2023/12/11 06:23:33;;;;;;;;;;;;;;;;;;4166629;28;20444;-65
2023/12/11 06:25:34;;;;;;;;;;;;;;;;;;4166675;28;20011;-60
2023/12/11 06:27:36;;;;;;;;;;;;;;;;;;4159913;28;19922;-60
2023/12/11 06:29:37;;;;;;;;;;;;;;;;;;4148457;28;19956;-61
2023/12/11 06:31:39;;;;;;;;;;;;;;;;;;4165702;28;19925;-60
2023/12/11 06:33:40;;;;;;;;;;;;;;;;;;4166703;28;19982;-60
2023/12/11 06:35:42;;;;;;;;;;;;;;;;;;4166576;28;19961;-60
2023/12/11 06:37:43;;;;;;;;;;;;;;;;;;4166806;28;19932;-59
2023/12/11 06:39:45;;;;;;;;;;;;;;;;;;4156577;28;19929;-60
2023/12/11 06:41:46;;;;;;;;;;;;;;;;;;4150135;28;19980;-59
2023/12/11 06:43:48;;;;;;;;;;;;;;;;;;4150256;28;19927;-60
2023/12/11 06:45:49;;;;;;;;;;;;;;;;;;4166252;28;19960;-60
2023/12/11 06:47:51;;;;;;;;;;;;;;;;;;4165791;28;19932;-59
2023/12/11 06:49:52;;;;;;;;;;;;;;;;;;4165771;28;19971;-61
2023/12/11 06:51:55;;;;;;;;;;;;;;;;;;4166703;28;19975;-60
2023/12/11 06:53:58;;;;;;;;;;;;;;;;;;4174882;28;19920;-64
2023/12/11 06:56:00;;;;;;;;;;;;;;;;;;4164976;28;20456;-64
2023/12/11 06:58:02;;;;;;;;;;;;;;;;;;4182644;28;19928;-64
2023/12/11 07:00:05;;;;;;;;;;;;;;;;;;4182325;28;19932;-64
2023/12/11 07:02:06;;;;;;;;;;;;;;;;;;4182423;28;20292;-64
2023/12/11 07:04:08;;;;;;;;;;;;;;;;;;4182231;28;19921;-64
2023/12/11 07:06:10;;;;;;;;;;;;;;;;;;4182436;28;20357;-64
2023/12/11 07:08:11;;;;;;;;;;;;;;;;;;4182319;28;19948;-64
2023/12/11 07:10:13;;;;;;;;;;;;;;;;;;4172962;28;19928;-64
2023/12/11 07:12:14;;;;;;;;;;;;;;;;;;4165813;28;19955;-64
2023/12/11 07:14:16;;;;;;;;;;;;;;;;;;4165969;28;20400;-64
2023/12/11 07:16:17;;;;;;;;;;;;;;;;;;4165648;28;19920;-65
2023/12/11 07:18:20;;;;;;;;;;;;;;;;;;4165822;28;20316;-65
2023/12/11 07:20:22;;;;;;;;;;;;;;;;;;4165466;28;19928;-64
2023/12/11 07:22:24;;;;;;;;;;;;;;;;;;4166066;28;19967;-64
2023/12/11 07:24:25;;;;;;;;;;;;;;;;;;4164412;28;19968;-63
2023/12/11 07:26:27;;;;;;;;;;;;;;;;;;4163269;28;20024;-66
2023/12/11 07:28:28;;;;;;;;;;;;;;;;;;4165161;28;19921;-67
2023/12/11 07:30:30;;;;;;;;;;;;;;;;;;4165223;28;19971;-67
2023/12/11 07:32:31;;;;;;;;;;;;;;;;;;4166242;28;20011;-67
2023/12/11 07:34:33;;;;;;;;;;;;;;;;;;4165132;28;19921;-67
2023/12/11 07:36:34;;;;;;;;;;;;;;;;;;4153205;28;19921;-67
2023/12/11 07:38:36;;;;;;;;;;;;;;;;;;4165166;28;20286;-67
2023/12/11 07:40:37;;;;;;;;;;;;;;;;;;4165266;28;19960;-66
2023/12/11 07:42:39;;;;;;;;;;;;;;;;;;4166108;28;19966;-67
2023/12/11 07:44:40;;;;;;;;;;;;;;;;;;4165158;28;19967;-67
2023/12/11 07:46:42;;;;;;;;;;;;;;;;;;4165544;28;19925;-67
2023/12/11 07:48:43;;;;;;;;;;;;;;;;;;4165416;28;20020;-67
2023/12/11 07:50:45;;;;;;;;;;;;;;;;;;4165568;28;19921;-67
2023/12/11 07:52:47;;;;;;;;;;;;;;;;;;4165311;28;19949;-66
2023/12/11 07:54:48;;;;;;;;;;;;;;;;;;4180968;28;19931;-67
2023/12/11 07:56:50;;;;;;;;;;;;;;;;;;4182146;28;19931;-67
2023/12/11 07:58:51;;;;;;;;;;;;;;;;;;4182091;28;19921;-67
2023/12/11 08:00:53;;;;;;;;;;;;;;;;;;4165934;28;20292;-66
2023/12/11 08:02:54;;;;;;;;;;;;;;;;;;4163979;28;19963;-66
2023/12/11 08:04:56;;;;;;;;;;;;;;;;;;4165719;28;19925;-67
2023/12/11 08:06:57;;;;;;;;;;;;;;;;;;4165252;28;19925;-66
2023/12/11 08:09:00;;;;;;;;;;;;;;;;;;4173844;28;19931;-67
2023/12/11 08:11:01;;;;;;;;;;;;;;;;;;4181687;28;19974;-67
2023/12/11 08:13:03;;;;;;;;;;;;;;;;;;4181939;28;20372;-67
2023/12/11 08:15:05;;;;;;;;;;;;;;;;;;4181706;28;19927;-67
2023/12/11 08:17:06;;;;;;;;;;;;;;;;;;4181648;28;20281;-66
2023/12/11 08:19:08;;;;;;;;;;;;;;;;;;4181679;28;19925;-67
2023/12/11 08:21:09;;;;;;;;;;;;;;;;;;4178806;28;20284;-67
2023/12/11 08:23:11;;;;;;;;;;;;;;;;;;4165181;28;19943;-67
2023/12/11 08:25:13;;;;;;;;;;;;;;;;;;4164990;28;20023;-67
2023/12/11 08:27:15;;;;;;;;;;;;;;;;;;4176195;28;20217;-67
2023/12/11 08:29:17;;;;;;;;;;;;;;;;;;4181513;28;20451;-67
2023/12/11 08:31:18;;;;;;;;;;;;;;;;;;4161406;28;20375;-67
2023/12/11 08:33:20;;;;;;;;;;;;;;;;;;4148762;28;19956;-67
2023/12/11 08:35:21;;;;;;;;;;;;;;;;;;4148774;28;20372;-67
2023/12/11 08:37:23;;;;;;;;;;;;;;;;;;4148661;28;19957;-67
2023/12/11 08:39:24;;;;;;;;;;;;;;;;;;4148607;28;19921;-66
2023/12/11 08:41:27;;;;;;;;;;;;;;;;;;4148769;28;19922;-67
2023/12/11 08:43:28;;;;;;;;;;;;;;;;;;4159638;28;20339;-67
2023/12/11 08:45:30;;;;;;;;;;;;;;;;;;4164340;28;19921;-66
2023/12/11 08:47:31;;;;;;;;;;;;;;;;;;4163317;28;19921;-66
2023/12/11 08:49:37;;;;;;;;;;;;;;;;;;4152170;28;19932;-66
2023/12/11 08:51:39;;;;;;;;;;;;;;;;;;4164518;28;19932;-67
2023/12/11 08:53:40;;;;;;;;;;;;;;;;;;4170675;28;19921;-66
2023/12/11 08:55:42;;;;;;;;;;;;;;;;;;4181305;28;19920;-66
2023/12/11 08:57:44;;;;;;;;;;;;;;;;;;4181249;28;19935;-67
2023/12/11 08:59:47;;;;;;;;;;;;;;;;;;4164478;28;19952;-66
2023/12/11 09:01:48;;;;;;;;;;;;;;;;;;4164672;28;19947;-66
2023/12/11 09:03:50;;;;;;;;;;;;;;;;;;4164258;28;19921;-67
2023/12/11 09:05:52;;;;;;;;;;;;;;;;;;4164516;28;19971;-66
2023/12/11 09:07:57;;;;;;;;;;;;;;;;;;4164835;28;19929;-67
2023/12/11 09:09:58;;;;;;;;;;;;;;;;;;4180924;28;19920;-66
2023/12/11 09:12:01;;;;;;;;;;;;;;;;;;4181370;28;19921;-67
2023/12/11 09:14:02;;;;;;;;;;;;;;;;;;4180876;28;19921;-67
2023/12/11 09:16:04;;;;;;;;;;;;;;;;;;4181018;28;20023;-63
2023/12/11 09:18:06;;;;;;;;;;;;;;;;;;4181139;28;19920;-63
2023/12/11 09:20:09;;;;;;;;;;;;;;;;;;4180709;28;19931;-63
2023/12/11 09:22:11;;;;;;;;;;;;;;;;;;4164669;28;20012;-63
2023/12/11 09:24:13;;;;;;;;;;;;;;;;;;4164206;28;19924;-63
2023/12/11 09:26:14;;;;;;;;;;;;;;;;;;4167268;28;19929;-63
2023/12/11 09:28:16;;;;;;;;;;;;;;;;;;4164989;28;20405;-64
2023/12/11 09:30:17;;;;;;;;;;;;;;;;;;4148025;28;19925;-63
2023/12/11 09:32:19;;;;;;;;;;;;;;;;;;4148087;28;19945;-63
2023/12/11 09:34:20;;;;;;;;;;;;;;;;;;4148159;28;19991;-63
2023/12/11 09:36:22;;;;;;;;;;;;;;;;;;4148037;28;20328;-63
2023/12/11 09:38:23;;;;;;;;;;;;;;;;;;4148358;28;19921;-63
2023/12/11 09:40:25;;;;;;;;;;;;;;;;;;4164204;28;20388;-63
2023/12/11 09:42:26;;;;;;;;;;;;;;;;;;4164451;28;19921;-63
2023/12/11 09:44:28;;;;;;;;;;;;;;;;;;4164210;28;20338;-63
2023/12/11 09:46:29;;;;;;;;;;;;;;;;;;4164268;28;19921;-63
2023/12/11 09:48:31;;;;;;;;;;;;;;;;;;4164554;28;19921;-63
2023/12/11 09:50:32;;;;;;;;;;;;;;;;;;4164239;28;19928;-63
2023/12/11 09:52:34;;;;;;;;;;;;;;;;;;4164223;28;19964;-63
2023/12/11 09:54:36;;;;;;;;;;;;;;;;;;4177974;28;19921;-63
2023/12/11 09:56:38;;;;;;;;;;;;;;;;;;4180949;28;20232;-64
2023/12/11 09:58:39;;;;;;;;;;;;;;;;;;4173853;28;19975;-63
2023/12/11 10:00:40;;;;;;;;;;;;;;;;;;4164085;28;19955;-63
2023/12/11 10:02:43;;;;;;;;;;;;;;;;;;4164291;28;19927;-63
2023/12/11 10:04:45;;;;;;;;;;;;;;;;;;4164035;28;19932;-63
2023/12/11 10:06:46;;;;;;;;;;;;;;;;;;4164088;28;20007;-63
2023/12/11 10:08:52;;;;;;;;;;;;;;;;;;4153627;28;20373;-63
2023/12/11 10:10:53;;;;;;;;;;;;;;;;;;4180554;28;19949;-63
2023/12/11 10:12:55;;;;;;;;;;;;;;;;;;4180755;28;19951;-63
2023/12/11 10:14:57;;;;;;;;;;;;;;;;;;4180468;28;19952;-61
2023/12/11 10:16:58;;;;;;;;;;;;;;;;;;4175085;28;19991;-60
2023/12/11 10:19:00;;;;;;;;;;;;;;;;;;4163949;28;20412;-60
2023/12/11 10:21:02;;;;;;;;;;;;;;;;;;4164140;28;19971;-60
2023/12/11 10:23:03;;;;;;;;;;;;;;;;;;4163981;28;19951;-61
2023/12/11 10:25:08;;;;;;;;;;;;;;;;;;4151233;28;19929;-61
2023/12/11 10:27:10;;;;;;;;;;;;;;;;;;4171833;28;19934;-60
2023/12/11 10:29:11;;;;;;;;;;;;;;;;;;4183613;28;19964;-60
2023/12/11 10:31:13;;;;;;;;;;;;;;;;;;4183338;28;19925;-60
2023/12/11 10:33:14;;;;;;;;;;;;;;;;;;4183349;28;20288;-60
2023/12/11 10:35:16;;;;;;;;;;;;;;;;;;4177426;28;19921;-61
2023/12/11 10:37:18;;;;;;;;;;;;;;;;;;4166818;28;19925;-60
2023/12/11 10:39:22;;;;;;;;;;;;;;;;;;4166765;28;19921;-61
2023/12/11 10:41:26;;;;;;;;;;;;;;;;;;4166900;28;19921;-60
2023/12/11 10:43:27;;;;;;;;;;;;;;;;;;4165926;28;20450;-61
2023/12/11 10:45:34;;;;;;;;;;;;;;;;;;4164920;28;19921;-61
2023/12/11 10:47:36;;;;;;;;;;;;;;;;;;4165865;28;19932;-61
2023/12/11 10:49:37;;;;;;;;;;;;;;;;;;4166463;28;19925;-61
2023/12/11 10:51:39;;;;;;;;;;;;;;;;;;4165507;28;21098;-61
2023/12/11 10:53:40;;;;;;;;;;;;;;;;;;4167241;28;19960;-60
2023/12/11 10:55:42;;;;;;;;;;;;;;;;;;4166208;28;19975;-61
2023/12/11 10:57:44;;;;;;;;;;;;;;;;;;4150131;28;20013;-61
2023/12/11 10:59:45;;;;;;;;;;;;;;;;;;4159193;28;19927;-61
2023/12/11 11:01:47;;;;;;;;;;;;;;;;;;4174242;28;20312;-60
2023/12/11 11:03:48;;;;;;;;;;;;;;;;;;4165971;28;19929;-60
2023/12/11 11:05:50;;;;;;;;;;;;;;;;;;4165350;28;20015;-61
2023/12/11 11:07:51;;;;;;;;;;;;;;;;;;4166113;28;20270;-60
2023/12/11 11:09:53;;;;;;;;;;;;;;;;;;4169330;28;19968;-61
2023/12/11 11:11:54;;;;;;;;;;;;;;;;;;4164821;28;19951;-61
2023/12/11 11:13:56;;;;;;;;;;;;;;;;;;4165187;28;19921;-61
2023/12/11 11:15:57;;;;;;;;;;;;;;;;;;4165812;28;19925;-61
2023/12/11 11:17:59;;;;;;;;;;;;;;;;;;4166251;28;19925;-61
2023/12/11 11:20:01;;;;;;;;;;;;;;;;;;4164876;28;19921;-60
2023/12/11 11:22:08;;;;;;;;;;;;;;;;;;4164350;28;19974;-60
2023/12/11 11:24:10;;;;;;;;;;;;;;;;;;4165349;28;19928;-60
2023/12/11 11:26:11;;;;;;;;;;;;;;;;;;4166382;28;19964;-61
2023/12/11 11:28:13;;;;;;;;;;;;;;;;;;4149691;28;19925;-60
2023/12/11 11:30:20;;;;;;;;;;;;;;;;;;4164428;28;20011;-61
2023/12/11 11:32:21;;;;;;;;;;;;;;;;;;4165703;28;20357;-60
2023/12/11 11:34:23;;;;;;;;;;;;;;;;;;4166108;28;19927;-61
2023/12/11 11:36:25;;;;;;;;;;;;;;;;;;4164906;28;19921;-60
2023/12/11 11:38:26;;;;;;;;;;;;;;;;;;4165376;28;19975;-60
2023/12/11 11:40:27;;;;;;;;;;;;;;;;;;4165643;28;19921;-60
2023/12/11 11:42:29;;;;;;;;;;;;;;;;;;4165467;28;19928;-60
2023/12/11 11:44:30;;;;;;;;;;;;;;;;;;4164580;28;20011;-60
2023/12/11 11:46:32;;;;;;;;;;;;;;;;;;4164334;28;19967;-60
2023/12/11 11:48:33;;;;;;;;;;;;;;;;;;4164654;28;19927;-60
2023/12/11 11:50:35;;;;;;;;;;;;;;;;;;4165415;28;20454;-60
2023/12/11 11:52:38;;;;;;;;;;;;;;;;;;4165380;28;19921;-60
2023/12/11 11:54:40;;;;;;;;;;;;;;;;;;4179777;28;20015;-60
2023/12/11 11:56:42;;;;;;;;;;;;;;;;;;4182007;28;20007;-60
2023/12/11 11:58:43;;;;;;;;;;;;;;;;;;4182289;28;20376;-61
2023/12/11 12:00:45;;;;;;;;;;;;;;;;;;4181626;28;20434;-61
2023/12/11 12:02:47;;;;;;;;;;;;;;;;;;4162906;28;20328;-61
2023/12/11 12:04:48;;;;;;;;;;;;;;;;;;4156525;28;20016;-60
2023/12/11 12:06:50;;;;;;;;;;;;;;;;;;4160650;28;20399;-61
2023/12/11 12:08:51;;;;;;;;;;;;;;;;;;4168994;28;19921;-61
2023/12/11 12:10:53;;;;;;;;;;;;;;;;;;4160969;28;19929;-61
2023/12/11 12:12:55;;;;;;;;;;;;;;;;;;4163198;28;19952;-61
2023/12/11 12:14:56;;;;;;;;;;;;;;;;;;4157805;28;19983;-61
2023/12/11 12:16:58;;;;;;;;;;;;;;;;;;4152949;28;20024;-61
2023/12/11 12:18:59;;;;;;;;;;;;;;;;;;4158046;28;20428;-61
2023/12/11 12:21:02;;;;;;;;;;;;;;;;;;4148504;28;19921;-62
2023/12/11 12:23:03;;;;;;;;;;;;;;;;;;4157059;28;19921;-62
2023/12/11 12:25:05;;;;;;;;;;;;;;;;;;4158162;28;19961;-61
2023/12/11 12:27:07;;;;;;;;;;;;;;;;;;4168540;28;19927;-62
2023/12/11 12:29:09;;;;;;;;;;;;;;;;;;4164309;28;20300;-62
2023/12/11 12:31:11;;;;;;;;;;;;;;;;;;4164376;28;20054;-62
2023/12/11 12:33:12;;;;;;;;;;;;;;;;;;4164901;28;19975;-65
2023/12/11 12:35:14;;;;;;;;;;;;;;;;;;4159592;28;19967;-65
2023/12/11 12:37:15;;;;;;;;;;;;;;;;;;4157236;28;19921;-65
2023/12/11 12:39:17;;;;;;;;;;;;;;;;;;4150768;28;19921;-66
2023/12/11 12:41:18;;;;;;;;;;;;;;;;;;4159104;28;19925;-65
2023/12/11 12:43:20;;;;;;;;;;;;;;;;;;4147462;28;19928;-63
2023/12/11 12:45:22;;;;;;;;;;;;;;;;;;4164770;28;19925;-64
2023/12/11 12:47:26;;;;;;;;;;;;;;;;;;4160159;28;19967;-64
2023/12/11 12:49:28;;;;;;;;;;;;;;;;;;4158769;28;19933;-63
2023/12/11 12:51:30;;;;;;;;;;;;;;;;;;4160414;28;20436;-64
2023/12/11 12:53:31;;;;;;;;;;;;;;;;;;4169685;28;20269;-64
2023/12/11 12:55:33;;;;;;;;;;;;;;;;;;4181210;28;20275;-63
2023/12/11 12:57:34;;;;;;;;;;;;;;;;;;4181668;28;19967;-63
2023/12/11 12:59:36;;;;;;;;;;;;;;;;;;4181498;28;19948;-63
2023/12/11 13:01:38;;;;;;;;;;;;;;;;;;4180824;28;19927;-63
2023/12/11 13:03:39;;;;;;;;;;;;;;;;;;4175229;28;19964;-63
2023/12/11 13:05:41;;;;;;;;;;;;;;;;;;4164424;28;20380;-64
2023/12/11 13:07:45;;;;;;;;;;;;;;;;;;4146999;28;20456;-64
2023/12/11 13:09:47;;;;;;;;;;;;;;;;;;4163957;28;19920;-64
2023/12/11 13:11:50;;;;;;;;;;;;;;;;;;4164475;28;19921;-61
2023/12/11 13:13:52;;;;;;;;;;;;;;;;;;4151387;28;20368;-61
2023/12/11 13:15:53;;;;;;;;;;;;;;;;;;4148051;28;19968;-61
2023/12/11 13:17:55;;;;;;;;;;;;;;;;;;4148082;28;20271;-61
2023/12/11 13:19:56;;;;;;;;;;;;;;;;;;4148011;28;19921;-61
2023/12/11 13:21:58;;;;;;;;;;;;;;;;;;4148041;28;19929;-61
2023/12/11 13:23:59;;;;;;;;;;;;;;;;;;4153212;28;19933;-61
2023/12/11 13:26:01;;;;;;;;;;;;;;;;;;4164067;28;20372;-61
2023/12/11 13:28:03;;;;;;;;;;;;;;;;;;4164492;28;20004;-61
2023/12/11 13:30:05;;;;;;;;;;;;;;;;;;4164409;28;20007;-60
2023/12/11 13:32:08;;;;;;;;;;;;;;;;;;4164386;28;19928;-61
2023/12/11 13:34:10;;;;;;;;;;;;;;;;;;4164454;28;19929;-61
2023/12/11 13:36:14;;;;;;;;;;;;;;;;;;4163010;28;20389;-61
2023/12/11 13:38:15;;;;;;;;;;;;;;;;;;4164257;28;20034;-61
2023/12/11 13:40:17;;;;;;;;;;;;;;;;;;4164107;28;19925;-64
2023/12/11 13:42:19;;;;;;;;;;;;;;;;;;4161087;28;20431;-71
2023/12/11 13:44:21;;;;;;;;;;;;;;;;;;4154444;28;19971;-70
2023/12/11 13:46:23;;;;;;;;;;;;;;;;;;4156883;28;19921;-69
2023/12/11 13:48:24;;;;;;;;;;;;;;;;;;4157984;28;19921;-69
2023/12/11 13:50:27;;;;;;;;;;;;;;;;;;4148825;28;20305;-70